createdAt,value
2018-12-14T00:00:45.955Z,1.7
2018-12-14T00:01:55.138Z,1.7
2018-12-14T00:03:04.325Z,1.8
2018-12-14T00:04:13.514Z,1.7
2018-12-14T00:05:22.694Z,1.7
2018-12-14T00:06:31.891Z,1.7
2018-12-14T00:07:41.078Z,1.7
2018-12-14T00:08:50.275Z,1.7
2018-12-14T00:09:59.458Z,1.7
2018-12-14T00:11:08.632Z,1.7
2018-12-14T00:12:17.822Z,1.7
2018-12-14T00:13:27.008Z,1.7
2018-12-14T00:14:36.224Z,1.7
2018-12-14T00:15:45.378Z,1.7
2018-12-14T00:16:54.567Z,1.7
2018-12-14T00:18:03.757Z,1.7
2018-12-14T00:19:12.939Z,1.7
2018-12-14T00:20:22.125Z,1.7
2018-12-14T00:21:31.307Z,1.7
2018-12-14T00:22:40.496Z,1.7
2018-12-14T00:23:49.682Z,1.7
2018-12-14T00:24:58.866Z,1.7
2018-12-14T00:26:08.199Z,1.7
2018-12-14T00:27:17.232Z,1.7
2018-12-14T00:28:26.462Z,1.7
2018-12-14T00:29:35.599Z,1.7
2018-12-14T00:30:44.829Z,1.7
2018-12-14T00:31:53.966Z,1.7
2018-12-14T00:33:03.151Z,1.7
2018-12-14T00:34:12.332Z,1.7
2018-12-14T00:35:21.531Z,1.6
2018-12-14T00:36:30.724Z,1.6
2018-12-14T00:37:39.898Z,1.6
2018-12-14T00:38:49.089Z,1.6
2018-12-14T00:39:58.259Z,1.6
2018-12-14T00:41:07.448Z,1.6
2018-12-14T00:42:16.651Z,1.6
2018-12-14T00:43:25.828Z,1.6
2018-12-14T00:44:34.999Z,1.6
2018-12-14T00:45:44.206Z,1.6
2018-12-14T00:46:53.361Z,1.6
2018-12-14T00:48:02.545Z,1.6
2018-12-14T00:49:11.824Z,1.6
2018-12-14T00:50:20.926Z,1.6
2018-12-14T00:51:30.144Z,1.6
2018-12-14T00:52:39.273Z,1.6
2018-12-14T00:53:48.521Z,1.6
2018-12-14T00:54:57.640Z,1.5
2018-12-14T00:56:06.842Z,1.5
2018-12-14T00:57:16.014Z,1.5
2018-12-14T00:58:25.203Z,1.5
2018-12-14T00:59:34.383Z,1.5
2018-12-14T01:00:43.553Z,1.5
2018-12-14T01:01:52.737Z,1.5
2018-12-14T01:03:01.916Z,1.5
2018-12-14T01:04:11.096Z,1.5
2018-12-14T01:05:20.294Z,1.5
2018-12-14T01:06:29.457Z,1.5
2018-12-14T01:07:38.693Z,1.5
2018-12-14T01:08:47.829Z,1.5
2018-12-14T01:09:57.006Z,1.5
2018-12-14T01:11:06.185Z,1.5
2018-12-14T01:12:15.377Z,1.5
2018-12-14T01:13:24.554Z,1.5
2018-12-14T01:14:33.740Z,1.5
2018-12-14T01:15:42.933Z,1.5
2018-12-14T01:16:52.230Z,1.5
2018-12-14T01:18:01.386Z,1.5
2018-12-14T01:19:10.582Z,1.5
2018-12-14T01:20:19.644Z,1.5
2018-12-14T01:21:28.830Z,1.5
2018-12-14T01:22:38.011Z,1.5
2018-12-14T01:23:47.217Z,1.5
2018-12-14T01:24:56.379Z,1.5
2018-12-14T01:26:05.558Z,1.5
2018-12-14T01:27:14.736Z,1.5
2018-12-14T01:28:23.921Z,1.5
2018-12-14T01:29:33.096Z,1.5
2018-12-14T01:30:42.277Z,1.5
2018-12-14T01:31:51.457Z,1.5
2018-12-14T01:33:00.641Z,1.5
2018-12-14T01:34:09.817Z,1.5
2018-12-14T01:35:19.002Z,1.5
2018-12-14T01:36:28.185Z,1.5
2018-12-14T01:37:37.378Z,1.5
2018-12-14T01:38:46.562Z,1.5
2018-12-14T01:39:55.754Z,1.5
2018-12-14T01:41:04.945Z,1.5
2018-12-14T01:42:14.098Z,1.5
2018-12-14T01:43:23.278Z,1.5
2018-12-14T01:44:32.527Z,1.5
2018-12-14T01:45:41.718Z,1.5
2018-12-14T01:46:50.813Z,1.5
2018-12-14T01:48:00.050Z,1.4
2018-12-14T01:49:09.194Z,1.5
2018-12-14T01:50:18.357Z,1.5
2018-12-14T01:51:27.529Z,1.4
2018-12-14T01:52:36.714Z,1.5
2018-12-14T01:53:45.908Z,1.4
2018-12-14T01:54:55.079Z,1.4
2018-12-14T01:56:04.245Z,1.4
2018-12-14T01:57:13.442Z,1.4
2018-12-14T01:58:22.678Z,1.4
2018-12-14T01:59:31.808Z,1.4
2018-12-14T02:00:40.993Z,1.4
2018-12-14T02:01:50.149Z,1.3
2018-12-14T02:02:59.331Z,1.4
2018-12-14T02:04:08.511Z,1.4
2018-12-14T02:05:17.718Z,1.4
2018-12-14T02:06:26.902Z,1.4
2018-12-14T02:07:36.048Z,1.3
2018-12-14T02:08:45.242Z,1.3
2018-12-14T02:09:54.428Z,1.3
2018-12-14T02:11:03.600Z,1.3
2018-12-14T02:12:12.798Z,1.3
2018-12-14T02:13:21.952Z,1.3
2018-12-14T02:14:31.119Z,1.4
2018-12-14T02:15:40.301Z,1.4
2018-12-14T02:16:49.484Z,1.3
2018-12-14T02:17:58.660Z,1.4
2018-12-14T02:19:07.915Z,1.3
2018-12-14T02:20:17.003Z,1.3
2018-12-14T02:21:26.187Z,1.3
2018-12-14T02:22:35.387Z,1.3
2018-12-14T02:23:44.551Z,1.3
2018-12-14T02:24:53.742Z,1.3
2018-12-14T02:26:02.905Z,1.3
2018-12-14T02:27:12.092Z,1.3
2018-12-14T02:28:21.258Z,1.3
2018-12-14T02:29:30.461Z,1.3
2018-12-14T02:30:39.641Z,1.2
2018-12-14T02:31:48.789Z,1.3
2018-12-14T02:32:57.975Z,1.3
2018-12-14T02:34:07.148Z,1.3
2018-12-14T02:35:16.335Z,1.2
2018-12-14T02:36:25.507Z,1.2
2018-12-14T02:37:34.690Z,1.1
2018-12-14T02:38:43.864Z,1.1
2018-12-14T02:39:53.036Z,1.2
2018-12-14T02:41:02.227Z,1.2
2018-12-14T02:42:19.098Z,1.2
2018-12-14T02:43:20.571Z,1.2
2018-12-14T02:44:29.759Z,1.1
2018-12-14T02:45:38.914Z,1.2
2018-12-14T02:46:48.111Z,1.2
2018-12-14T02:47:57.287Z,1.2
2018-12-14T02:49:06.446Z,1.1
2018-12-14T02:50:15.618Z,1.1
2018-12-14T02:51:24.857Z,1.1
2018-12-14T02:52:33.969Z,1.1
2018-12-14T02:53:43.184Z,1.1
2018-12-14T02:54:52.322Z,0.9
2018-12-14T02:56:01.492Z,1
2018-12-14T02:57:10.711Z,1
2018-12-14T02:58:19.846Z,0.9
2018-12-14T02:59:29.031Z,1
2018-12-14T03:00:38.194Z,1
2018-12-14T03:01:47.357Z,1
2018-12-14T03:02:56.544Z,0.9
2018-12-14T03:04:05.713Z,0.9
2018-12-14T03:05:14.900Z,0.9
2018-12-14T03:06:24.058Z,0.9
2018-12-14T03:07:33.264Z,0.9
2018-12-14T03:08:42.397Z,0.9
2018-12-14T03:09:51.572Z,0.9
2018-12-14T03:11:00.755Z,0.9
2018-12-14T03:12:09.937Z,1
2018-12-14T03:13:19.095Z,0.9
2018-12-14T03:14:28.304Z,0.9
2018-12-14T03:15:37.441Z,0.9
2018-12-14T03:16:46.601Z,0.9
2018-12-14T03:17:55.800Z,0.9
2018-12-14T03:19:04.936Z,0.9
2018-12-14T03:20:14.117Z,0.9
2018-12-14T03:21:23.288Z,1
2018-12-14T03:22:32.517Z,0.9
2018-12-14T03:23:41.618Z,0.9
2018-12-14T03:24:50.801Z,0.9
2018-12-14T03:26:00.019Z,0.9
2018-12-14T03:27:09.139Z,0.9
2018-12-14T03:28:18.303Z,0.9
2018-12-14T03:29:27.478Z,0.9
2018-12-14T03:30:36.752Z,0.9
2018-12-14T03:31:45.854Z,0.8
2018-12-14T03:32:55.001Z,0.8
2018-12-14T03:34:04.153Z,0.9
2018-12-14T03:35:13.321Z,0.9
2018-12-14T03:36:22.483Z,0.8
2018-12-14T03:37:31.686Z,0.8
2018-12-14T03:38:40.870Z,0.9
2018-12-14T03:39:49.996Z,0.9
2018-12-14T03:40:59.157Z,0.9
2018-12-14T03:42:08.320Z,0.8
2018-12-14T03:43:17.497Z,0.8
2018-12-14T03:44:26.715Z,0.9
2018-12-14T03:45:35.829Z,0.8
2018-12-14T03:46:44.996Z,0.8
2018-12-14T03:47:54.162Z,0.8
2018-12-14T03:49:03.329Z,0.8
2018-12-14T03:50:12.503Z,0.8
2018-12-14T03:51:21.687Z,0.8
2018-12-14T03:52:30.858Z,0.8
2018-12-14T03:53:40.010Z,0.8
2018-12-14T03:54:49.177Z,0.8
2018-12-14T03:55:58.346Z,0.8
2018-12-14T03:57:07.516Z,0.8
2018-12-14T03:58:16.706Z,0.8
2018-12-14T03:59:25.915Z,0.8
2018-12-14T04:00:35.043Z,0.8
2018-12-14T04:01:44.182Z,0.8
2018-12-14T04:02:53.358Z,0.8
2018-12-14T04:04:02.552Z,0.8
2018-12-14T04:05:11.716Z,0.8
2018-12-14T04:06:20.861Z,0.8
2018-12-14T04:07:30.010Z,0.8
2018-12-14T04:08:39.176Z,0.8
2018-12-14T04:09:48.424Z,0.8
2018-12-14T04:10:57.510Z,0.9
2018-12-14T04:12:06.680Z,0.9
2018-12-14T04:13:15.843Z,0.8
2018-12-14T04:14:25.022Z,0.8
2018-12-14T04:15:34.176Z,0.7
2018-12-14T04:16:43.362Z,0.8
2018-12-14T04:17:52.579Z,0.8
2018-12-14T04:19:01.677Z,0.8
2018-12-14T04:20:10.844Z,0.8
2018-12-14T04:21:20.021Z,0.8
2018-12-14T04:22:29.180Z,0.9
2018-12-14T04:23:38.341Z,0.9
2018-12-14T04:24:47.519Z,0.9
2018-12-14T04:25:56.735Z,0.9
2018-12-14T04:27:05.858Z,0.8
2018-12-14T04:28:15.020Z,0.9
2018-12-14T04:29:24.190Z,0.9
2018-12-14T04:30:33.366Z,0.9
2018-12-14T04:31:42.509Z,0.8
2018-12-14T04:32:51.677Z,0.9
2018-12-14T04:34:00.846Z,0.8
2018-12-14T04:35:10.023Z,0.8
2018-12-14T04:36:19.223Z,0.8
2018-12-14T04:37:28.354Z,0.8
2018-12-14T04:38:37.639Z,0.8
2018-12-14T04:39:46.682Z,0.8
2018-12-14T04:40:55.918Z,0.8
2018-12-14T04:42:05.031Z,0.8
2018-12-14T04:43:14.204Z,0.8
2018-12-14T04:44:23.345Z,0.7
2018-12-14T04:45:32.517Z,0.8
2018-12-14T04:46:41.911Z,0.7
2018-12-14T04:47:50.884Z,0.7
2018-12-14T04:49:00.008Z,0.7
2018-12-14T04:50:10.520Z,0.8
2018-12-14T04:51:18.345Z,0.7
2018-12-14T04:52:27.562Z,0.7
2018-12-14T04:53:36.672Z,0.7
2018-12-14T04:54:45.853Z,0.7
2018-12-14T04:55:54.997Z,0.7
2018-12-14T04:57:04.177Z,0.7
2018-12-14T04:58:13.332Z,0.7
2018-12-14T04:59:22.505Z,0.7
2018-12-14T05:00:31.657Z,0.7
2018-12-14T05:01:40.830Z,0.7
2018-12-14T05:02:49.985Z,0.7
2018-12-14T05:03:59.152Z,0.7
2018-12-14T05:05:08.318Z,0.7
2018-12-14T05:06:17.483Z,0.7
2018-12-14T05:07:26.771Z,0.7
2018-12-14T05:08:35.807Z,0.7
2018-12-14T05:09:44.968Z,0.7
2018-12-14T05:10:54.136Z,0.7
2018-12-14T05:12:03.301Z,0.7
2018-12-14T05:13:12.474Z,0.7
2018-12-14T05:14:21.641Z,0.7
2018-12-14T05:15:30.807Z,0.7
2018-12-14T05:16:40.045Z,0.7
2018-12-14T05:17:49.123Z,0.7
2018-12-14T05:18:58.285Z,0.7
2018-12-14T05:20:07.451Z,0.7
2018-12-14T05:21:16.618Z,0.7
2018-12-14T05:22:25.793Z,0.7
2018-12-14T05:23:34.961Z,0.7
2018-12-14T05:24:44.115Z,0.8
2018-12-14T05:25:53.281Z,0.8
2018-12-14T05:27:02.480Z,0.8
2018-12-14T05:28:11.601Z,0.8
2018-12-14T05:29:20.766Z,0.8
2018-12-14T05:30:29.940Z,0.8
2018-12-14T05:31:39.102Z,0.8
2018-12-14T05:32:48.257Z,0.8
2018-12-14T05:33:57.425Z,0.8
2018-12-14T05:35:06.586Z,0.8
2018-12-14T05:36:15.756Z,0.8
2018-12-14T05:37:24.969Z,0.9
2018-12-14T05:38:34.080Z,0.9
2018-12-14T05:39:43.253Z,0.9
2018-12-14T05:40:52.408Z,0.9
2018-12-14T05:42:01.578Z,0.9
2018-12-14T05:43:10.763Z,0.9
2018-12-14T05:44:19.908Z,0.9
2018-12-14T05:45:29.078Z,0.9
2018-12-14T05:46:38.252Z,0.9
2018-12-14T05:47:47.438Z,0.9
2018-12-14T05:48:56.589Z,0.9
2018-12-14T05:50:05.745Z,0.8
2018-12-14T05:51:14.916Z,0.9
2018-12-14T05:52:24.102Z,0.9
2018-12-14T05:53:33.245Z,0.8
2018-12-14T05:54:42.417Z,0.8
2018-12-14T05:55:51.581Z,0.9
2018-12-14T05:57:00.758Z,0.8
2018-12-14T05:58:09.924Z,0.9
2018-12-14T05:59:19.093Z,0.9
2018-12-14T06:00:28.258Z,1
2018-12-14T06:01:37.532Z,0.9
2018-12-14T06:02:46.587Z,0.9
2018-12-14T06:03:55.757Z,1
2018-12-14T06:05:04.952Z,0.9
2018-12-14T06:06:14.096Z,0.9
2018-12-14T06:07:23.266Z,0.9
2018-12-14T06:08:32.436Z,0.9
2018-12-14T06:09:41.600Z,0.9
2018-12-14T06:10:50.775Z,1
2018-12-14T06:11:59.946Z,1
2018-12-14T06:13:09.368Z,1
2018-12-14T06:14:18.290Z,1
2018-12-14T06:15:27.677Z,1
2018-12-14T06:16:36.630Z,0.9
2018-12-14T06:17:45.794Z,0.9
2018-12-14T06:18:54.967Z,0.9
2018-12-14T06:20:04.134Z,0.9
2018-12-14T06:21:13.302Z,0.9
2018-12-14T06:22:22.475Z,0.9
2018-12-14T06:23:31.645Z,0.9
2018-12-14T06:24:40.845Z,0.9
2018-12-14T06:25:49.996Z,0.9
2018-12-14T06:26:59.163Z,0.9
2018-12-14T06:28:08.332Z,0.9
2018-12-14T06:29:17.493Z,0.9
2018-12-14T06:30:26.716Z,0.9
2018-12-14T06:31:35.839Z,0.9
2018-12-14T06:32:45.030Z,0.9
2018-12-14T06:33:54.178Z,1
2018-12-14T06:35:03.349Z,1
2018-12-14T06:36:12.501Z,0.9
2018-12-14T06:37:21.676Z,0.9
2018-12-14T06:38:30.847Z,1
2018-12-14T06:39:40.009Z,1
2018-12-14T06:40:49.195Z,1
2018-12-14T06:41:58.395Z,1
2018-12-14T06:43:07.531Z,1
2018-12-14T06:44:16.697Z,1
2018-12-14T06:45:25.864Z,0.9
2018-12-14T06:46:35.051Z,0.9
2018-12-14T06:47:44.205Z,0.9
2018-12-14T06:48:53.366Z,0.9
2018-12-14T06:50:02.536Z,0.9
2018-12-14T06:51:11.715Z,0.9
2018-12-14T06:52:20.908Z,0.9
2018-12-14T06:53:30.060Z,0.9
2018-12-14T06:54:39.213Z,1
2018-12-14T06:55:48.389Z,0.9
2018-12-14T06:56:57.553Z,1
2018-12-14T06:58:06.729Z,0.9
2018-12-14T06:59:15.912Z,0.9
2018-12-14T07:00:25.068Z,0.9
2018-12-14T07:01:34.232Z,0.9
2018-12-14T07:02:43.408Z,0.9
2018-12-14T07:03:52.573Z,1
2018-12-14T07:05:01.747Z,0.9
2018-12-14T07:06:10.913Z,1
2018-12-14T07:07:20.109Z,1
2018-12-14T07:08:29.255Z,1
2018-12-14T07:09:38.419Z,0.9
2018-12-14T07:10:47.593Z,1
2018-12-14T07:11:56.777Z,1
2018-12-14T07:13:05.929Z,1
2018-12-14T07:14:15.101Z,1
2018-12-14T07:15:24.292Z,1
2018-12-14T07:16:33.426Z,1
2018-12-14T07:17:42.598Z,0.9
2018-12-14T07:18:51.770Z,1
2018-12-14T07:20:00.959Z,0.9
2018-12-14T07:21:10.113Z,0.9
2018-12-14T07:22:19.279Z,0.9
2018-12-14T07:23:28.453Z,1
2018-12-14T07:24:37.723Z,0.9
2018-12-14T07:25:46.822Z,0.9
2018-12-14T07:26:56.194Z,0.9
2018-12-14T07:28:05.130Z,0.9
2018-12-14T07:29:14.303Z,0.8
2018-12-14T07:30:23.479Z,0.9
2018-12-14T07:31:32.657Z,0.9
2018-12-14T07:32:41.927Z,0.9
2018-12-14T07:33:50.999Z,0.8
2018-12-14T07:35:00.189Z,0.8
2018-12-14T07:36:09.340Z,0.8
2018-12-14T07:37:18.527Z,0.9
2018-12-14T07:38:27.677Z,0.9
2018-12-14T07:39:36.905Z,0.9
2018-12-14T07:40:46.037Z,0.9
2018-12-14T07:41:55.193Z,1
2018-12-14T07:43:04.369Z,0.9
2018-12-14T07:44:13.533Z,0.9
2018-12-14T07:45:22.686Z,0.9
2018-12-14T07:46:31.863Z,0.9
2018-12-14T07:47:41.083Z,0.9
2018-12-14T07:48:50.336Z,1
2018-12-14T07:49:59.371Z,0.9
2018-12-14T07:51:08.585Z,1
2018-12-14T07:52:17.724Z,0.9
2018-12-14T07:53:26.992Z,0.9
2018-12-14T07:54:36.072Z,0.9
2018-12-14T07:55:45.231Z,1
2018-12-14T07:56:55.678Z,1
2018-12-14T07:58:03.584Z,1
2018-12-14T07:59:12.721Z,0.9
2018-12-14T08:00:21.958Z,1
2018-12-14T08:01:31.081Z,1
2018-12-14T08:02:40.248Z,1
2018-12-14T08:03:49.419Z,1
2018-12-14T08:04:58.590Z,1
2018-12-14T08:06:07.778Z,1.1
2018-12-14T08:07:16.941Z,1
2018-12-14T08:08:26.096Z,1
2018-12-14T08:09:35.294Z,0.9
2018-12-14T08:10:44.435Z,1
2018-12-14T08:11:53.603Z,0.9
2018-12-14T08:13:02.784Z,0.9
2018-12-14T08:14:11.997Z,1
2018-12-14T08:15:21.134Z,1
2018-12-14T08:16:30.336Z,1
2018-12-14T08:17:39.523Z,0.9
2018-12-14T08:18:48.644Z,0.9
2018-12-14T08:19:57.831Z,0.9
2018-12-14T08:21:07.084Z,0.9
2018-12-14T08:22:16.164Z,0.9
2018-12-14T08:23:25.331Z,0.9
2018-12-14T08:24:34.658Z,1
2018-12-14T08:25:43.759Z,1
2018-12-14T08:26:52.879Z,1
2018-12-14T08:28:02.029Z,1
2018-12-14T08:29:11.222Z,1
2018-12-14T08:30:20.388Z,1.1
2018-12-14T08:31:29.576Z,1.1
2018-12-14T08:32:38.786Z,1.1
2018-12-14T08:33:47.905Z,1.1
2018-12-14T08:34:57.133Z,1.1
2018-12-14T08:36:06.281Z,1
2018-12-14T08:37:15.455Z,1
2018-12-14T08:38:24.607Z,1.1
2018-12-14T08:39:33.794Z,1.1
2018-12-14T08:40:42.982Z,1.1
2018-12-14T08:41:52.137Z,1.1
2018-12-14T08:43:01.306Z,1.1
2018-12-14T08:44:10.485Z,1.1
2018-12-14T08:45:19.668Z,1.2
2018-12-14T08:46:28.847Z,1.1
2018-12-14T08:47:38.021Z,1.2
2018-12-14T08:48:47.199Z,1.1
2018-12-14T08:49:56.378Z,1.1
2018-12-14T08:51:05.554Z,1.2
2018-12-14T08:52:14.750Z,1.1
2018-12-14T08:53:23.907Z,1.1
2018-12-14T08:54:33.084Z,1.2
2018-12-14T08:55:42.262Z,1.1
2018-12-14T08:56:51.433Z,1.2
2018-12-14T08:58:00.661Z,1.1
2018-12-14T08:59:09.815Z,1
2018-12-14T09:00:18.986Z,1.2
2018-12-14T09:01:28.157Z,1.2
2018-12-14T09:02:37.334Z,1.3
2018-12-14T09:03:46.510Z,1.2
2018-12-14T09:04:55.770Z,1.2
2018-12-14T09:06:04.865Z,1.2
2018-12-14T09:07:14.044Z,1.2
2018-12-14T09:08:23.221Z,1.2
2018-12-14T09:09:32.435Z,1
2018-12-14T09:10:41.596Z,1
2018-12-14T09:11:50.763Z,1
2018-12-14T09:12:59.987Z,1
2018-12-14T09:14:09.121Z,1.1
2018-12-14T09:15:18.307Z,1.1
2018-12-14T09:16:27.476Z,1.1
2018-12-14T09:17:36.667Z,1.2
2018-12-14T09:18:45.831Z,1.2
2018-12-14T09:19:55.015Z,1.1
2018-12-14T09:21:04.211Z,1.2
2018-12-14T09:22:13.381Z,1.1
2018-12-14T09:23:22.558Z,1.2
2018-12-14T09:24:31.831Z,1.1
2018-12-14T09:25:41.062Z,1.2
2018-12-14T09:26:50.152Z,1.1
2018-12-14T09:27:59.331Z,1.1
2018-12-14T09:29:08.550Z,1.2
2018-12-14T09:30:17.655Z,1.2
2018-12-14T09:31:26.932Z,1.2
2018-12-14T09:32:36.024Z,1.2
2018-12-14T09:33:45.321Z,1.2
2018-12-14T09:34:54.386Z,1.2
2018-12-14T09:36:03.617Z,1.2
2018-12-14T09:37:12.763Z,1.2
2018-12-14T09:38:21.993Z,1.2
2018-12-14T09:39:31.102Z,1.2
2018-12-14T09:40:40.297Z,1.3
2018-12-14T09:41:49.537Z,1.4
2018-12-14T09:42:58.699Z,1.3
2018-12-14T09:44:07.899Z,1.2
2018-12-14T09:45:17.059Z,1.2
2018-12-14T09:46:26.243Z,1.1
2018-12-14T09:47:35.418Z,1.2
2018-12-14T09:48:44.657Z,1.2
2018-12-14T09:49:53.763Z,1.2
2018-12-14T09:51:02.972Z,1.1
2018-12-14T09:52:12.130Z,1.2
2018-12-14T09:53:21.317Z,1.3
2018-12-14T09:54:30.492Z,1.2
2018-12-14T09:55:39.699Z,1.3
2018-12-14T09:56:48.855Z,1.3
2018-12-14T09:57:58.032Z,1.3
2018-12-14T09:59:07.223Z,1.4
2018-12-14T10:00:16.406Z,1.3
2018-12-14T10:01:25.658Z,1.4
2018-12-14T10:02:34.768Z,1.4
2018-12-14T10:03:44.014Z,1.4
2018-12-14T10:04:53.155Z,1.3
2018-12-14T10:06:02.340Z,1.2
2018-12-14T10:07:11.549Z,1.2
2018-12-14T10:08:20.703Z,1.3
2018-12-14T10:09:29.891Z,1.4
2018-12-14T10:10:39.085Z,1.4
2018-12-14T10:11:54.699Z,1.3
2018-12-14T10:12:57.455Z,1.4
2018-12-14T10:14:06.648Z,1.3
2018-12-14T10:15:15.828Z,1.3
2018-12-14T10:16:25.025Z,1.3
2018-12-14T10:17:34.201Z,1.3
2018-12-14T10:18:43.393Z,1.3
2018-12-14T10:19:52.564Z,1.4
2018-12-14T10:21:01.813Z,1.4
2018-12-14T10:22:11.061Z,1.4
2018-12-14T10:23:20.134Z,1.4
2018-12-14T10:24:29.312Z,1.4
2018-12-14T10:25:38.529Z,1.4
2018-12-14T10:26:47.689Z,1.4
2018-12-14T10:27:56.941Z,1.3
2018-12-14T10:29:06.070Z,1.4
2018-12-14T10:30:15.262Z,1.4
2018-12-14T10:31:24.450Z,1.5
2018-12-14T10:32:33.634Z,1.6
2018-12-14T10:33:42.818Z,1.4
2018-12-14T10:34:52.055Z,1.4
2018-12-14T10:36:01.189Z,1.5
2018-12-14T10:37:10.378Z,1.5
2018-12-14T10:38:19.585Z,1.5
2018-12-14T10:39:28.752Z,1.5
2018-12-14T10:40:38.557Z,1.5
2018-12-14T10:41:47.154Z,1.4
2018-12-14T10:42:56.322Z,1.4
2018-12-14T10:44:07.491Z,1.5
2018-12-14T10:45:14.714Z,1.5
2018-12-14T10:46:23.892Z,1.6
2018-12-14T10:47:33.113Z,1.5
2018-12-14T10:48:42.291Z,1.4
2018-12-14T10:49:51.470Z,1.5
2018-12-14T10:51:00.674Z,1.4
2018-12-14T10:52:09.865Z,1.4
2018-12-14T10:53:19.036Z,1.5
2018-12-14T10:54:28.271Z,1.5
2018-12-14T10:55:37.487Z,1.6
2018-12-14T10:56:46.607Z,1.5
2018-12-14T10:57:55.970Z,1.4
2018-12-14T10:59:05.033Z,1.5
2018-12-14T11:00:14.269Z,1.4
2018-12-14T11:01:23.394Z,1.4
2018-12-14T11:02:32.597Z,1.4
2018-12-14T11:03:41.788Z,1.4
2018-12-14T11:04:50.958Z,1.3
2018-12-14T11:06:00.151Z,1.3
2018-12-14T11:07:09.332Z,1.4
2018-12-14T11:08:18.516Z,1.4
2018-12-14T11:09:27.707Z,1.4
2018-12-14T11:10:36.894Z,1.5
2018-12-14T11:11:46.096Z,1.4
2018-12-14T11:12:55.278Z,1.4
2018-12-14T11:14:04.535Z,1.5
2018-12-14T11:15:13.656Z,1.5
2018-12-14T11:16:22.849Z,1.6
2018-12-14T11:17:32.040Z,1.7
2018-12-14T11:18:41.370Z,1.8
2018-12-14T11:19:50.475Z,1.6
2018-12-14T11:20:59.608Z,1.6
2018-12-14T11:22:08.906Z,1.6
2018-12-14T11:23:18.193Z,1.5
2018-12-14T11:24:27.192Z,1.6
2018-12-14T11:25:36.406Z,1.6
2018-12-14T11:26:45.573Z,1.5
2018-12-14T11:27:54.765Z,1.5
2018-12-14T11:29:03.970Z,1.5
2018-12-14T11:30:13.148Z,1.5
2018-12-14T11:31:22.451Z,1.6
2018-12-14T11:32:31.575Z,1.6
2018-12-14T11:33:40.831Z,1.7
2018-12-14T11:34:49.926Z,1.8
2018-12-14T11:35:59.113Z,1.5
2018-12-14T11:37:08.307Z,1.6
2018-12-14T11:38:17.495Z,1.6
2018-12-14T11:39:26.735Z,1.5
2018-12-14T11:40:35.887Z,1.6
2018-12-14T11:41:45.133Z,1.6
2018-12-14T11:42:54.298Z,1.5
2018-12-14T11:44:03.635Z,1.5
2018-12-14T11:45:12.667Z,1.6
2018-12-14T11:46:21.849Z,1.6
2018-12-14T11:47:31.043Z,1.6
2018-12-14T11:48:40.263Z,1.6
2018-12-14T11:49:49.428Z,1.5
2018-12-14T11:50:58.621Z,1.5
2018-12-14T11:52:07.819Z,1.7
2018-12-14T11:53:16.999Z,1.6
2018-12-14T11:54:26.206Z,1.7
2018-12-14T11:55:35.427Z,1.7
2018-12-14T11:56:44.613Z,1.7
2018-12-14T11:57:53.781Z,1.6
2018-12-14T11:59:02.979Z,1.6
2018-12-14T12:00:12.179Z,1.4
2018-12-14T12:01:21.370Z,1.5
2018-12-14T12:02:30.621Z,1.5
2018-12-14T12:03:42.731Z,1.6
2018-12-14T12:04:48.953Z,1.6
2018-12-14T12:05:58.171Z,1.6
2018-12-14T12:07:07.349Z,1.6
2018-12-14T12:08:16.558Z,1.6
2018-12-14T12:09:25.787Z,1.7
2018-12-14T12:10:34.943Z,1.6
2018-12-14T12:11:44.181Z,1.5
2018-12-14T12:12:53.378Z,1.5
2018-12-14T12:14:02.536Z,1.6
2018-12-14T12:15:11.785Z,1.6
2018-12-14T12:16:20.932Z,1.7
2018-12-14T12:17:30.122Z,1.8
2018-12-14T12:18:39.407Z,1.9
2018-12-14T12:19:48.560Z,2
2018-12-14T12:20:57.707Z,1.8
2018-12-14T12:22:06.910Z,1.6
2018-12-14T12:23:16.095Z,1.6
2018-12-14T12:24:25.311Z,1.7
2018-12-14T12:25:34.515Z,1.7
2018-12-14T12:26:43.692Z,1.8
2018-12-14T12:27:52.899Z,1.8
2018-12-14T12:29:02.087Z,1.8
2018-12-14T12:30:11.366Z,1.8
2018-12-14T12:31:20.479Z,1.8
2018-12-14T12:32:29.668Z,1.7
2018-12-14T12:33:38.860Z,1.6
2018-12-14T12:34:48.089Z,1.6
2018-12-14T12:35:57.277Z,1.6
2018-12-14T12:37:06.479Z,1.5
2018-12-14T12:38:15.678Z,1.4
2018-12-14T12:39:24.882Z,1.5
2018-12-14T12:40:34.112Z,1.4
2018-12-14T12:41:43.333Z,1.5
2018-12-14T12:42:52.433Z,1.5
2018-12-14T12:44:01.644Z,1.5
2018-12-14T12:45:10.832Z,1.5
2018-12-14T12:46:20.016Z,1.5
2018-12-14T12:47:29.209Z,1.4
2018-12-14T12:48:38.395Z,1.5
2018-12-14T12:49:47.785Z,1.5
2018-12-14T12:51:02.819Z,1.5
2018-12-14T12:52:06.093Z,1.5
2018-12-14T12:53:15.166Z,1.4
2018-12-14T12:54:24.364Z,1.5
2018-12-14T12:55:33.685Z,1.5
2018-12-14T12:56:42.799Z,1.6
2018-12-14T12:57:52.039Z,1.6
2018-12-14T12:59:01.126Z,1.6
2018-12-14T13:00:10.346Z,1.5
2018-12-14T13:01:19.520Z,1.5
2018-12-14T13:02:28.710Z,1.6
2018-12-14T13:03:37.878Z,1.6
2018-12-14T13:04:47.100Z,1.6
2018-12-14T13:05:56.273Z,1.5
2018-12-14T13:07:05.447Z,1.5
2018-12-14T13:08:14.686Z,1.5
2018-12-14T13:09:23.838Z,1.5
2018-12-14T13:10:33.028Z,1.5
2018-12-14T13:11:42.371Z,1.5
2018-12-14T13:12:51.413Z,1.5
2018-12-14T13:14:00.586Z,1.3
2018-12-14T13:15:09.784Z,1.4
2018-12-14T13:16:18.982Z,1.5
2018-12-14T13:17:28.159Z,1.5
2018-12-14T13:18:37.361Z,1.4
2018-12-14T13:19:46.538Z,1.5
2018-12-14T13:20:55.817Z,1.5
2018-12-14T13:22:04.911Z,1.5
2018-12-14T13:23:14.091Z,1.5
2018-12-14T13:24:23.268Z,1.4
2018-12-14T13:25:32.472Z,1.4
2018-12-14T13:26:41.731Z,1.5
2018-12-14T13:27:50.823Z,1.5
2018-12-14T13:29:00.011Z,1.4
2018-12-14T13:30:09.190Z,1.4
2018-12-14T13:31:18.416Z,1.5
2018-12-14T13:32:27.559Z,1.4
2018-12-14T13:33:36.747Z,1.4
2018-12-14T13:34:45.976Z,1.3
2018-12-14T13:35:55.117Z,1.3
2018-12-14T13:37:04.311Z,1.3
2018-12-14T13:38:13.519Z,1.3
2018-12-14T13:39:22.684Z,1.3
2018-12-14T13:40:31.878Z,1.2
2018-12-14T13:41:41.066Z,1.2
2018-12-14T13:42:50.230Z,1.2
2018-12-14T13:43:59.431Z,1.2
2018-12-14T13:45:08.598Z,1.2
2018-12-14T13:46:17.766Z,1.2
2018-12-14T13:47:26.993Z,1.2
2018-12-14T13:48:36.160Z,1.1
2018-12-14T13:49:45.385Z,1.2
2018-12-14T13:50:54.507Z,1.3
2018-12-14T13:52:03.689Z,1.3
2018-12-14T13:53:12.844Z,1.4
2018-12-14T13:54:22.054Z,1.3
2018-12-14T13:55:31.228Z,1.3
2018-12-14T15:04:42.440Z,1.1
2018-12-14T15:05:51.048Z,1.1
2018-12-14T15:07:00.258Z,1.1
2018-12-14T15:08:09.416Z,1.1
2018-12-14T15:09:18.848Z,1.1
2018-12-14T15:10:27.758Z,1.1
2018-12-14T15:11:36.929Z,1.1
2018-12-14T15:12:46.212Z,1
2018-12-14T15:13:55.288Z,1
2018-12-14T15:15:06.728Z,1.1
2018-12-14T15:16:13.629Z,1.2
2018-12-14T15:17:22.788Z,1.2
2018-12-14T15:18:31.991Z,1.1
2018-12-14T15:19:41.228Z,1.1
2018-12-14T15:20:50.333Z,1.1
2018-12-14T15:22:04.451Z,1.1
2018-12-14T15:23:08.698Z,1.1
2018-12-14T15:24:17.936Z,1.1
2018-12-14T15:25:27.024Z,1.1
2018-12-14T15:26:36.196Z,1.2
